首页
METAR-TAF:

METAR-TAF

机场 :

纳塔尔, 北里约格朗德, 巴西

纬度: 05-46-05S, 经度: 035-22-34W, 海拔: 88米

当前天气观测

该预报发布于41分钟前的20:00 UTC
风速8节,风向东转东南
温度 27°C
湿度 79%
气压 1013 hPa
能见度10公里或以上
散云层高于2200英尺
少量云层高于2700英尺, 塔状积云.
附近有阵雨,

METAR: SBSG 252000Z 12008KT 9999 VCSH SCT022 FEW027TCU 27/23 Q1013

时间: 17:41 (20:41 UTC)

预报

该预报发布于6小时和3分钟前的14:38 UTC
预报有效从25日的 18点(UTC)到 26日的 18点(UTC)
风速10节,风向东南
能见度10公里或以上
多云层高于2000英尺
成为
从 26日的 00点(UTC)到 26日的 02点(UTC)
风速5节,风向
成为
从 26日的 10点(UTC)到 26日的 12点(UTC)
风速5节,风向东南
多云层高于1700英尺
短暂存在
从 26日的 14点(UTC)到 26日的 18点(UTC)
能見度: 6000
散云层高于2000英尺
少量云层高于3000英尺, 塔状积云.

TAF: SBSG 251438Z 2518/2618 13010KT 9999 BKN020 TN23/2608Z TX28/2617Z BECMG 2600/2602 18005KT BECMG 2610/2612 14005KT BKN017 TEMPO 2614/2618 6000 SCT020 FEW030TCU RMK PGU

超过4000个机场的气象观测和天气预报(METAR&TAF报告)。

可查询的气象台以黄色和红色小点在地图上表示。

将鼠标移到小点上方,可查看气象台名称。

然后点击查看天气观测和预报。

如需切换地图:点击带黑十字的绿色按钮放大地图;点击带横线的绿色按钮缩小地图;或者点击绿色箭头查看邻近地区的地图。


METAR-TAF: